createdAt,value
2023-04-10T00:00:56.975Z,101516.97
2023-04-10T00:03:25.152Z,101511.19
2023-04-10T00:05:54.758Z,101506.91
2023-04-10T00:08:24.181Z,101503.88
2023-04-10T00:10:51.922Z,101501.34
2023-04-10T00:13:19.640Z,101501.69
2023-04-10T00:15:47.396Z,101506.84
2023-04-10T00:18:15.438Z,101491.75
2023-04-10T00:20:43.809Z,101498.88
2023-04-10T00:23:11.502Z,101499.50
2023-04-10T00:25:40.617Z,101501.00
2023-04-10T00:28:08.386Z,101490.47
2023-04-10T00:30:36.125Z,101484.56
2023-04-10T00:33:03.991Z,101478.81
2023-04-10T00:35:31.845Z,101476.97
2023-04-10T00:37:59.624Z,101464.16
2023-04-10T00:40:27.476Z,101470.69
2023-04-10T00:42:56.510Z,101471.09
2023-04-10T00:45:24.398Z,101468.81
2023-04-10T00:47:52.763Z,101462.00
2023-04-10T00:50:21.132Z,101462.13
2023-04-10T00:52:49.336Z,101463.84
2023-04-10T00:55:17.166Z,101465.16
2023-04-10T00:57:47.113Z,101461.72
2023-04-10T01:00:17.482Z,101465.09
2023-04-10T01:02:45.549Z,101454.91
2023-04-10T01:05:13.887Z,101448.47
2023-04-10T01:07:53.789Z,101449.28
2023-04-10T01:10:28.540Z,101444.41
2023-04-10T01:13:05.574Z,101431.97
2023-04-10T01:15:40.199Z,101436.41
2023-04-10T01:18:12.540Z,101420.97
2023-04-10T01:20:41.301Z,101427.03
2023-04-10T01:23:32.543Z,101414.69
2023-04-10T01:26:01.197Z,101414.97
2023-04-10T01:28:44.569Z,101419.31
2023-04-10T01:31:15.595Z,101419.09
2023-04-10T01:33:47.712Z,101414.19
2023-04-10T01:36:21.889Z,101418.41
2023-04-10T01:38:50.907Z,101413.25
2023-04-10T01:41:19.971Z,101414.19
2023-04-10T01:43:50.648Z,101411.66
2023-04-10T01:46:20.573Z,101412.63
2023-04-10T01:48:48.621Z,101411.66
2023-04-10T01:51:17.091Z,101414.41
2023-04-10T01:53:46.057Z,101407.03
2023-04-10T01:56:14.195Z,101407.66
2023-04-10T01:58:42.107Z,101403.31
2023-04-10T02:01:22.515Z,101399.66
2023-04-10T02:03:56.904Z,101399.19
2023-04-10T02:06:31.988Z,101396.28
2023-04-10T02:09:03.885Z,101396.50
2023-04-10T02:11:37.129Z,101397.25
2023-04-10T02:14:07.051Z,101398.84
2023-04-10T02:16:37.921Z,101397.16
2023-04-10T02:19:06.964Z,101398.69
2023-04-10T02:21:35.221Z,101400.81
2023-04-10T02:24:02.906Z,101392.06
2023-04-10T02:26:30.765Z,101393.72
2023-04-10T02:28:58.432Z,101394.63
2023-04-10T02:31:26.144Z,101393.81
2023-04-10T02:33:55.512Z,101389.22
2023-04-10T02:36:23.336Z,101383.72
2023-04-10T02:38:51.117Z,101382.25
2023-04-10T02:41:18.831Z,101379.38
2023-04-10T02:43:46.577Z,101382.16
2023-04-10T02:46:14.238Z,101369.03
2023-04-10T02:48:41.985Z,101370.63
2023-04-10T02:51:11.043Z,101368.84
2023-04-10T02:53:38.766Z,101365.31
2023-04-10T02:56:08.137Z,101362.75
2023-04-10T02:58:36.123Z,101362.84
2023-04-10T03:01:04.046Z,101361.22
2023-04-10T03:03:31.811Z,101362.16
2023-04-10T03:05:59.586Z,101348.47
2023-04-10T03:08:30.184Z,101355.19
2023-04-10T03:10:57.897Z,101345.66
2023-04-10T03:13:26.037Z,101344.56
2023-04-10T03:15:53.849Z,101351.88
2023-04-10T03:18:21.547Z,101338.84
2023-04-10T03:20:49.960Z,101350.41
2023-04-10T03:23:17.696Z,101349.59
2023-04-10T03:25:50.931Z,101342.28
2023-04-10T03:28:18.695Z,101350.78
2023-04-10T03:30:46.450Z,101343.63
2023-04-10T03:33:14.198Z,101339.59
2023-04-10T03:35:42.056Z,101347.53
2023-04-10T03:38:09.861Z,101345.69
2023-04-10T03:40:37.770Z,101350.72
2023-04-10T03:43:06.877Z,101349.34
2023-04-10T03:45:34.660Z,101341.59
2023-04-10T03:48:02.389Z,101335.84
2023-04-10T03:50:30.498Z,101346.53
2023-04-10T03:52:58.230Z,101347.50
2023-04-10T03:55:25.921Z,101351.66
2023-04-10T03:57:53.677Z,101348.19
2023-04-10T04:00:22.851Z,101349.09
2023-04-10T04:02:51.912Z,101340.75
2023-04-10T04:05:20.043Z,101347.03
2023-04-10T04:07:48.122Z,101341.59
2023-04-10T04:10:15.986Z,101342.00
2023-04-10T04:12:43.778Z,101337.69
2023-04-10T04:15:12.090Z,101348.19
2023-04-10T04:17:41.215Z,101349.22
2023-04-10T04:20:09.988Z,101348.13
2023-04-10T04:22:37.674Z,101340.63
2023-04-10T04:25:08.912Z,101340.25
2023-04-10T04:27:36.680Z,101332.81
2023-04-10T04:30:04.707Z,101327.50
2023-04-10T04:32:32.501Z,101322.59
2023-04-10T04:35:01.623Z,101320.06
2023-04-10T04:37:29.434Z,101311.50
2023-04-10T04:39:57.080Z,101320.19
2023-04-10T04:42:25.021Z,101330.03
2023-04-10T04:44:52.918Z,101324.41
2023-04-10T04:47:20.647Z,101320.41
2023-04-10T04:49:48.424Z,101318.13
2023-04-10T04:52:17.482Z,101317.63
2023-04-10T04:54:45.460Z,101319.28
2023-04-10T04:57:13.135Z,101317.78
2023-04-10T04:59:40.821Z,101325.50
2023-04-10T05:02:08.569Z,101316.16
2023-04-10T05:04:36.326Z,101316.22
2023-04-10T05:07:04.003Z,101312.16
2023-04-10T05:09:33.029Z,101306.81
2023-04-10T05:12:00.739Z,101303.13
2023-04-10T05:14:28.426Z,101311.50
2023-04-10T05:16:56.219Z,101310.13
2023-04-10T05:19:23.926Z,101312.66
2023-04-10T05:21:51.624Z,101301.75
2023-04-10T05:24:19.290Z,101294.25
2023-04-10T05:26:48.550Z,101301.56
2023-04-10T05:29:16.248Z,101294.69
2023-04-10T05:31:43.974Z,101285.19
2023-04-10T05:34:11.839Z,101303.88
2023-04-10T05:36:39.518Z,101289.69
2023-04-10T05:39:07.177Z,101297.19
2023-04-10T05:41:34.974Z,101308.59
2023-04-10T05:44:04.056Z,101310.47
2023-04-10T05:46:31.877Z,101313.28
2023-04-10T05:48:59.680Z,101306.41
2023-04-10T05:51:27.373Z,101299.16
2023-04-10T05:53:55.199Z,101306.94
2023-04-10T05:56:22.899Z,101302.28
2023-04-10T05:58:50.654Z,101303.78
2023-04-10T06:01:19.759Z,101302.44
2023-04-10T06:03:47.792Z,101288.88
2023-04-10T06:06:15.843Z,101281.47
2023-04-10T06:08:43.518Z,101283.63
2023-04-10T06:11:11.439Z,101288.84
2023-04-10T06:13:39.194Z,101293.38
2023-04-10T06:16:07.688Z,101288.59
2023-04-10T06:18:36.898Z,101289.19
2023-04-10T06:21:04.890Z,101275.91
2023-04-10T06:23:32.629Z,101269.56
2023-04-10T06:26:01.375Z,101278.22
2023-04-10T06:28:29.050Z,101266.13
2023-04-10T06:30:57.549Z,101276.88
2023-04-10T06:33:26.394Z,101265.91
2023-04-10T06:35:56.057Z,101256.31
2023-04-10T06:38:23.803Z,101264.19
2023-04-10T06:40:51.540Z,101270.53
2023-04-10T06:43:19.252Z,101270.16
2023-04-10T06:45:47.063Z,101263.75
2023-04-10T06:48:15.141Z,101263.16
2023-04-10T06:50:42.929Z,101253.22
2023-04-10T06:53:12.103Z,101248.25
2023-04-10T06:55:40.024Z,101232.13
2023-04-10T06:58:07.730Z,101232.41
2023-04-10T07:00:35.500Z,101229.16
2023-04-10T07:03:03.231Z,101226.97
2023-04-10T07:05:31.112Z,101225.44
2023-04-10T07:07:58.811Z,101220.66
2023-04-10T07:10:27.930Z,101221.50
2023-04-10T07:12:57.220Z,101201.84
2023-04-10T07:15:24.889Z,101185.19
2023-04-10T07:17:52.828Z,101187.72
2023-04-10T07:20:20.698Z,101179.19
2023-04-10T07:22:48.463Z,101201.34
2023-04-10T07:25:16.622Z,101190.00
2023-04-10T07:27:45.690Z,101190.13
2023-04-10T07:30:13.971Z,101187.31
2023-04-10T07:32:42.379Z,101187.03
2023-04-10T07:35:11.036Z,101180.25
2023-04-10T07:37:39.757Z,101165.06
2023-04-10T07:40:09.063Z,101169.72
2023-04-10T07:42:36.922Z,101159.53
2023-04-10T07:45:09.710Z,101178.44
2023-04-10T07:47:37.444Z,101175.69
2023-04-10T07:50:06.443Z,101168.19
2023-04-10T07:52:34.133Z,101169.06
2023-04-10T07:55:02.761Z,101156.53
2023-04-10T07:57:32.170Z,101144.97
2023-04-10T08:00:00.034Z,101148.63
2023-04-10T08:02:29.305Z,101130.91
2023-04-10T08:04:57.957Z,101128.13
2023-04-10T08:07:26.000Z,101118.66
2023-04-10T08:09:53.869Z,101118.09
2023-04-10T08:12:21.625Z,101114.03
2023-04-10T08:14:51.712Z,101108.81
2023-04-10T08:17:19.672Z,101105.31
2023-04-10T08:19:48.756Z,101074.28
2023-04-10T08:22:16.568Z,101079.50
2023-04-10T08:24:44.498Z,101080.59
2023-04-10T08:27:12.363Z,101085.16
2023-04-10T08:29:40.058Z,101074.53
2023-04-10T08:32:07.764Z,101084.19
2023-04-10T08:34:35.540Z,101073.97
2023-04-10T08:37:10.589Z,101082.00
2023-04-10T08:39:39.805Z,101070.16
2023-04-10T08:42:07.780Z,101079.28
2023-04-10T08:44:37.164Z,101071.28
2023-04-10T08:47:05.150Z,101058.81
2023-04-10T08:49:36.394Z,101053.94
2023-04-10T08:52:08.103Z,101056.81
2023-04-10T08:54:39.464Z,101042.25
2023-04-10T08:57:09.811Z,101060.09
2023-04-10T08:59:38.658Z,101044.47
2023-04-10T09:02:07.407Z,101066.44
2023-04-10T09:04:35.557Z,101059.16
2023-04-10T09:07:03.356Z,101066.78
2023-04-10T09:09:33.250Z,101061.56
2023-04-10T09:12:02.634Z,101061.34
2023-04-10T09:14:31.837Z,101053.47
2023-04-10T09:17:13.081Z,101056.22
2023-04-10T09:19:41.020Z,101054.91
2023-04-10T09:22:09.008Z,101053.34
2023-04-10T09:24:39.107Z,101061.94
2023-04-10T09:27:07.231Z,101056.41
2023-04-10T09:29:45.887Z,101048.50
2023-04-10T09:32:13.757Z,101052.84
2023-04-10T09:34:54.896Z,101035.41
2023-04-10T09:37:22.849Z,101031.88
2023-04-10T09:39:51.879Z,101029.56
2023-04-10T09:42:31.411Z,101032.16
2023-04-10T09:44:59.568Z,101017.66
2023-04-10T09:47:27.418Z,101002.56
2023-04-10T09:49:56.477Z,100994.75
2023-04-10T09:52:26.388Z,101025.13
2023-04-10T09:54:56.382Z,101013.94
2023-04-10T09:57:25.936Z,101005.22
2023-04-10T09:59:55.048Z,100992.00
2023-04-10T10:02:24.097Z,100996.16
2023-04-10T10:04:53.275Z,100995.25
2023-04-10T10:07:22.375Z,100988.53
2023-04-10T10:09:51.687Z,100987.94
2023-04-10T10:12:24.938Z,100966.06
2023-04-10T10:14:58.831Z,100954.22
2023-04-10T10:17:31.581Z,100955.19
2023-04-10T10:20:02.796Z,100941.13
2023-04-10T10:22:30.643Z,100957.47
2023-04-10T10:24:59.955Z,100927.38
2023-04-10T10:27:30.036Z,100915.22
2023-04-10T10:30:02.869Z,100921.31
2023-04-10T10:32:33.324Z,100911.97
2023-04-10T10:35:02.287Z,100907.31
2023-04-10T10:37:30.644Z,100900.50
2023-04-10T10:40:00.701Z,100892.84
2023-04-10T10:42:35.724Z,100907.66
2023-04-10T10:45:10.440Z,100882.81
2023-04-10T10:47:42.081Z,100892.50
2023-04-10T10:50:10.434Z,100884.59
2023-04-10T10:52:49.716Z,100866.44
2023-04-10T10:55:34.890Z,100870.81
2023-04-10T10:58:06.202Z,100854.47
2023-04-10T11:01:10.095Z,100852.22
2023-04-10T11:03:38.590Z,100859.69
2023-04-10T11:06:08.461Z,100854.75
2023-04-10T11:08:45.837Z,100842.78
2023-04-10T11:11:16.670Z,100852.06
2023-04-10T11:14:17.973Z,100851.06
2023-04-10T11:16:49.547Z,100841.88
2023-04-10T11:19:23.680Z,100842.47
2023-04-10T11:22:08.966Z,100841.16
2023-04-10T11:25:00.047Z,100842.84
2023-04-10T11:27:49.599Z,100835.09
2023-04-10T11:30:29.380Z,100824.28
2023-04-10T11:32:57.434Z,100821.88
2023-04-10T11:35:25.286Z,100820.09
2023-04-10T11:37:52.993Z,100823.81
2023-04-10T11:40:21.181Z,100811.19
2023-04-10T11:42:48.890Z,100791.84
2023-04-10T11:45:30.871Z,100794.38
2023-04-10T11:47:58.639Z,100789.00
2023-04-10T11:50:32.237Z,100798.47
2023-04-10T11:52:59.926Z,100779.56
2023-04-10T11:55:38.337Z,100771.97
2023-04-10T11:58:06.697Z,100767.94
2023-04-10T12:00:35.761Z,100776.91
2023-04-10T12:03:03.662Z,100782.78
2023-04-10T12:05:46.671Z,100759.53
2023-04-10T12:08:14.410Z,100750.75
2023-04-10T12:10:50.987Z,100738.72
2023-04-10T12:13:25.968Z,100729.03
2023-04-10T12:15:55.316Z,100736.38
2023-04-10T12:18:23.621Z,100731.00
2023-04-10T12:20:56.201Z,100725.44
2023-04-10T12:23:24.584Z,100729.41
2023-04-10T12:25:53.200Z,100744.28
2023-04-10T12:28:22.229Z,100700.03
2023-04-10T12:30:52.791Z,100720.75
2023-04-10T12:33:25.914Z,100705.53
2023-04-10T12:35:54.298Z,100693.50
2023-04-10T12:38:42.007Z,100690.38
2023-04-10T12:41:11.203Z,100701.53
2023-04-10T12:43:39.964Z,100698.41
2023-04-10T12:46:09.439Z,100677.31
2023-04-10T12:48:38.548Z,100686.31
2023-04-10T12:51:06.523Z,100671.47
2023-04-10T12:53:44.625Z,100669.97
2023-04-10T12:56:12.432Z,100663.22
2023-04-10T12:58:42.401Z,100654.88
2023-04-10T13:01:10.680Z,100660.63
2023-04-10T13:03:39.958Z,100670.38
2023-04-10T13:06:08.592Z,100639.44
2023-04-10T13:08:36.491Z,100659.22
2023-04-10T13:11:04.198Z,100654.00
2023-04-10T13:13:32.806Z,100649.53
2023-04-10T13:16:00.768Z,100640.06
2023-04-10T13:18:28.564Z,100635.44
2023-04-10T13:20:57.635Z,100620.38
2023-04-10T13:23:25.284Z,100625.03
2023-04-10T13:25:53.549Z,100629.63
2023-04-10T13:28:21.560Z,100618.97
2023-04-10T13:30:49.255Z,100618.28
2023-04-10T13:33:16.979Z,100618.41
2023-04-10T13:35:44.708Z,100628.84
2023-04-10T13:38:13.760Z,100599.53
2023-04-10T13:40:41.421Z,100599.25
2023-04-10T13:43:09.101Z,100581.38
2023-04-10T13:45:36.803Z,100576.50
2023-04-10T13:48:07.212Z,100552.91
2023-04-10T13:50:35.206Z,100567.66
2023-04-10T13:53:02.985Z,100555.81
2023-04-10T13:55:32.098Z,100547.66
2023-04-10T13:57:59.826Z,100541.63
2023-04-10T14:00:27.742Z,100526.09
2023-04-10T14:02:55.615Z,100518.75
2023-04-10T14:05:23.509Z,100506.78
2023-04-10T14:07:56.788Z,100507.25
2023-04-10T14:10:24.494Z,100502.63
2023-04-10T14:12:53.569Z,100495.34
2023-04-10T14:15:21.287Z,100500.06
2023-04-10T14:17:48.986Z,100499.88
2023-04-10T14:20:16.711Z,100484.41
2023-04-10T14:22:44.350Z,100479.84
2023-04-10T14:25:15.713Z,100456.97
2023-04-10T14:27:44.044Z,100455.44
2023-04-10T14:30:13.796Z,100455.41
2023-04-10T14:32:41.659Z,100448.03
2023-04-10T14:35:10.633Z,100454.16
2023-04-10T14:37:38.523Z,100455.94
2023-04-10T14:40:07.498Z,100440.53
2023-04-10T14:42:35.191Z,100441.47
2023-04-10T14:45:03.104Z,100444.78
2023-04-10T14:47:32.216Z,100427.94
2023-04-10T14:49:59.961Z,100436.66
2023-04-10T14:52:27.675Z,100432.72
2023-04-10T14:54:55.421Z,100414.50
2023-04-10T14:57:23.054Z,100402.44
2023-04-10T14:59:50.762Z,100407.78
2023-04-10T15:02:18.505Z,100426.31
2023-04-10T15:04:47.682Z,100417.03
2023-04-10T15:07:15.403Z,100408.03
2023-04-10T15:09:44.463Z,100411.44
2023-04-10T15:12:12.087Z,100403.41
2023-04-10T15:14:39.829Z,100397.09
2023-04-10T15:17:07.608Z,100382.22
2023-04-10T15:19:35.480Z,100376.31
2023-04-10T15:22:04.704Z,100371.53
2023-04-10T15:24:39.896Z,100355.25
2023-04-10T15:27:15.095Z,100371.91
2023-04-10T15:29:43.967Z,100358.88
2023-04-10T15:32:11.642Z,100361.94
2023-04-10T15:34:39.330Z,100364.28
2023-04-10T15:37:08.343Z,100356.88
2023-04-10T15:39:37.110Z,100348.44
2023-04-10T15:42:05.252Z,100340.72
2023-04-10T15:44:33.003Z,100334.81
2023-04-10T15:47:00.846Z,100327.03
2023-04-10T15:49:37.057Z,100316.09
2023-04-10T15:52:06.213Z,100310.47
2023-04-10T15:54:35.868Z,100305.81
2023-04-10T15:57:03.821Z,100313.91
2023-04-10T15:59:31.837Z,100309.94
2023-04-10T16:01:59.713Z,100300.97
2023-04-10T16:04:27.591Z,100299.16
2023-04-10T16:06:56.449Z,100296.50
2023-04-10T16:09:26.401Z,100283.13
2023-04-10T16:11:56.317Z,100283.91
2023-04-10T16:14:24.081Z,100283.16
2023-04-10T16:16:52.023Z,100282.13
2023-04-10T16:19:19.819Z,100276.59
2023-04-10T16:21:47.491Z,100270.31
2023-04-10T16:24:15.469Z,100266.94
2023-04-10T16:26:43.180Z,100249.94
2023-04-10T16:29:12.202Z,100264.25
2023-04-10T16:31:39.947Z,100251.63
2023-04-10T16:34:07.655Z,100245.19
2023-04-10T16:36:35.395Z,100252.91
2023-04-10T16:39:03.118Z,100262.84
2023-04-10T16:41:30.902Z,100244.09
2023-04-10T16:43:58.566Z,100261.81
2023-04-10T16:46:27.805Z,100247.22
2023-04-10T16:48:55.659Z,100244.97
2023-04-10T16:51:24.348Z,100252.50
2023-04-10T16:53:52.110Z,100252.69
2023-04-10T16:56:19.908Z,100268.50
2023-04-10T16:58:47.588Z,100255.19
2023-04-10T17:01:17.776Z,100265.00
2023-04-10T17:03:47.537Z,100267.34
2023-04-10T17:06:16.002Z,100274.38
2023-04-10T17:08:43.951Z,100276.00
2023-04-10T17:11:12.529Z,100274.75
2023-04-10T17:13:40.542Z,100276.03
2023-04-10T17:16:09.411Z,100268.34
2023-04-10T17:18:37.569Z,100273.59
2023-04-10T17:21:07.444Z,100268.41
2023-04-10T17:23:35.218Z,100250.25
2023-04-10T17:26:05.605Z,100235.59
2023-04-10T17:28:33.809Z,100229.75
2023-04-10T17:31:01.794Z,100212.13
2023-04-10T17:33:29.630Z,100210.78
2023-04-10T17:35:57.491Z,100211.50
2023-04-10T17:38:26.693Z,100226.41
2023-04-10T17:40:54.339Z,100220.06
2023-04-10T17:43:22.606Z,100228.31
2023-04-10T17:45:50.355Z,100220.34
2023-04-10T17:48:18.424Z,100210.13
2023-04-10T17:50:46.278Z,100204.41
2023-04-10T17:53:14.026Z,100213.34
2023-04-10T17:55:43.066Z,100207.72
2023-04-10T17:58:10.793Z,100203.50
2023-04-10T18:00:38.670Z,100209.28
2023-04-10T18:03:06.447Z,100197.00
2023-04-10T18:05:36.728Z,100197.00
2023-04-10T18:08:04.466Z,100205.34
2023-04-10T18:10:32.147Z,100202.78
2023-04-10T18:13:01.278Z,100204.25
2023-04-10T18:15:29.521Z,100201.56
2023-04-10T18:17:57.313Z,100203.53
2023-04-10T18:20:25.078Z,100205.09
2023-04-10T18:22:52.837Z,100211.88
2023-04-10T18:25:20.490Z,100221.63
2023-04-10T18:28:09.772Z,100214.63
2023-04-10T18:30:38.976Z,100224.78
2023-04-10T18:33:10.709Z,100209.38
2023-04-10T18:35:39.034Z,100222.63
2023-04-10T18:38:06.797Z,100225.06
2023-04-10T18:40:36.614Z,100225.78
2023-04-10T18:43:04.307Z,100238.06
2023-04-10T18:45:33.903Z,100244.59
2023-04-10T18:48:03.030Z,100225.75
2023-04-10T18:50:31.778Z,100221.19
2023-04-10T18:52:59.432Z,100196.72
2023-04-10T18:55:27.160Z,100201.91
2023-04-10T18:57:55.117Z,100188.66
2023-04-10T19:00:23.111Z,100167.91
2023-04-10T19:02:51.023Z,100146.72
2023-04-10T19:05:20.130Z,100156.59
2023-04-10T19:08:00.622Z,100159.47
2023-04-10T19:10:29.042Z,100153.72
2023-04-10T19:12:57.368Z,100167.66
2023-04-10T19:15:25.873Z,100152.84
2023-04-10T19:17:54.129Z,100155.16
2023-04-10T19:20:49.796Z,100166.25
2023-04-10T19:23:11.768Z,100169.13
2023-04-10T19:25:39.562Z,100169.59
2023-04-10T19:28:07.489Z,100154.31
2023-04-10T19:30:35.341Z,100161.66
2023-04-10T19:33:03.071Z,100156.84
2023-04-10T19:35:32.319Z,100152.63
2023-04-10T19:38:00.138Z,100159.25
2023-04-10T19:40:28.036Z,100153.09
2023-04-10T19:42:57.455Z,100147.09
2023-04-10T19:45:29.113Z,100152.47
2023-04-10T19:47:57.431Z,100151.53
2023-04-10T19:50:25.363Z,100150.81
2023-04-10T19:52:54.385Z,100148.66
2023-04-10T19:55:22.312Z,100154.81
2023-04-10T19:57:50.654Z,100153.59
2023-04-10T20:00:18.790Z,100141.19
2023-04-10T20:02:46.645Z,100140.47
2023-04-10T20:05:14.783Z,100124.31
2023-04-10T20:07:42.574Z,100123.22
2023-04-10T20:10:12.325Z,100127.91
2023-04-10T20:12:40.030Z,100090.69
2023-04-10T20:15:09.287Z,100086.69
2023-04-10T20:17:38.490Z,100081.00
2023-04-10T20:20:07.301Z,100087.38
2023-04-10T20:22:34.974Z,100085.03
2023-04-10T20:25:02.644Z,100068.88
2023-04-10T20:27:31.660Z,100071.28
2023-04-10T20:29:59.348Z,100078.78
2023-04-10T20:32:27.029Z,100097.81
2023-04-10T20:34:54.731Z,100093.97
2023-04-10T20:37:22.873Z,100110.59
2023-04-10T20:39:52.238Z,100106.72
2023-04-10T20:42:19.978Z,100109.00
2023-04-10T20:44:49.287Z,100107.22
2023-04-10T20:47:16.987Z,100111.78
2023-04-10T20:49:44.635Z,100098.78
2023-04-10T20:52:12.375Z,100088.66
2023-04-10T20:54:40.080Z,100088.66
2023-04-10T20:57:07.948Z,100087.44
2023-04-10T20:59:36.660Z,100085.47
2023-04-10T21:02:05.934Z,100078.53
2023-04-10T21:04:33.739Z,100072.03
2023-04-10T21:07:01.518Z,100068.19
2023-04-10T21:09:29.275Z,100068.56
2023-04-10T21:11:57.684Z,100060.94
2023-04-10T21:14:25.346Z,100078.78
2023-04-10T21:16:53.050Z,100069.84
2023-04-10T21:19:22.134Z,100058.53
2023-04-10T21:21:49.871Z,100060.78
2023-04-10T21:24:17.609Z,100061.88
2023-04-10T21:26:45.785Z,100058.75
2023-04-10T21:29:13.533Z,100052.00
2023-04-10T21:31:41.335Z,100053.34
2023-04-10T21:34:09.131Z,100052.59
2023-04-10T21:36:39.029Z,100066.69
2023-04-10T21:39:09.211Z,100067.16
2023-04-10T21:41:37.315Z,100052.84
2023-04-10T21:44:05.040Z,100058.84
2023-04-10T21:46:33.158Z,100068.38
2023-04-10T21:49:01.190Z,100056.34
2023-04-10T21:51:29.121Z,100060.31
2023-04-10T21:53:58.169Z,100047.44
2023-04-10T21:56:25.934Z,100060.56
2023-04-10T21:58:53.891Z,100067.66
2023-04-10T22:01:21.863Z,100045.97
2023-04-10T22:03:50.604Z,100039.72
2023-04-10T22:06:18.608Z,100046.22
2023-04-10T22:08:46.945Z,100049.56
2023-04-10T22:11:16.007Z,100047.38
2023-04-10T22:13:43.747Z,100051.50
2023-04-10T22:16:11.475Z,100054.03
2023-04-10T22:18:39.278Z,100045.38
2023-04-10T22:21:07.447Z,100046.72
2023-04-10T22:23:35.148Z,100046.47
2023-04-10T22:26:02.830Z,100048.88
2023-04-10T22:28:31.892Z,100030.94
2023-04-10T22:30:59.699Z,100035.16
2023-04-10T22:33:27.577Z,100037.69
2023-04-10T22:35:55.379Z,100032.50
2023-04-10T22:38:23.129Z,100018.53
2023-04-10T22:40:50.862Z,100009.50
2023-04-10T22:43:18.634Z,100001.69
2023-04-10T22:45:47.909Z,100005.28
2023-04-10T22:48:15.711Z,99995.88
2023-04-10T22:50:43.503Z,99996.63
2023-04-10T22:53:11.685Z,99996.63
2023-04-10T22:55:39.407Z,99990.81
2023-04-10T22:58:07.346Z,99990.38
2023-04-10T23:00:35.346Z,99980.94
2023-04-10T23:03:04.733Z,99969.13
2023-04-10T23:05:33.023Z,99982.63
2023-04-10T23:08:00.831Z,99979.00
2023-04-10T23:10:28.572Z,99979.91
2023-04-10T23:12:56.346Z,99991.94
2023-04-10T23:15:24.085Z,99994.41
2023-04-10T23:17:51.828Z,99994.13
2023-04-10T23:20:21.001Z,99994.19
2023-04-10T23:22:48.675Z,99997.84
2023-04-10T23:25:16.502Z,100007.34
2023-04-10T23:27:44.313Z,99995.97
2023-04-10T23:30:12.573Z,99999.88
2023-04-10T23:32:40.374Z,99990.75
2023-04-10T23:35:08.530Z,99982.16
2023-04-10T23:37:37.743Z,100076.25
2023-04-10T23:40:06.168Z,100101.97
2023-04-10T23:42:33.815Z,100086.31
2023-04-10T23:45:01.585Z,100062.47
2023-04-10T23:47:29.345Z,100059.44
2023-04-10T23:49:57.111Z,100067.06
2023-04-10T23:52:24.794Z,100080.81
2023-04-10T23:54:56.517Z,100106.63
2023-04-10T23:57:24.397Z,100092.66
2023-04-10T23:59:52.265Z,100092.81
